sensor_id;sensor_type;location;lat;lon;timestamp;P1;durP1;ratioP1;P2;durP2;ratioP2
81056;SDS011;70563;50.084;14.468;2023-08-21T00:01:43;10.98;;;9.73;;
81056;SDS011;70563;50.084;14.468;2023-08-21T00:04:09;14.40;;;9.65;;
81056;SDS011;70563;50.084;14.468;2023-08-21T00:06:34;14.98;;;10.02;;
81056;SDS011;70563;50.084;14.468;2023-08-21T00:09:03;11.68;;;9.30;;
81056;SDS011;70563;50.084;14.468;2023-08-21T00:11:28;12.52;;;10.18;;
81056;SDS011;70563;50.084;14.468;2023-08-21T00:13:54;13.70;;;9.68;;
81056;SDS011;70563;50.084;14.468;2023-08-21T00:16:19;12.27;;;8.68;;
81056;SDS011;70563;50.084;14.468;2023-08-21T00:18:44;12.15;;;9.57;;
81056;SDS011;70563;50.084;14.468;2023-08-21T00:21:10;13.52;;;10.52;;
81056;SDS011;70563;50.084;14.468;2023-08-21T00:23:35;13.25;;;10.10;;
81056;SDS011;70563;50.084;14.468;2023-08-21T00:26:00;12.00;;;10.35;;
81056;SDS011;70563;50.084;14.468;2023-08-21T00:28:26;14.50;;;10.18;;
81056;SDS011;70563;50.084;14.468;2023-08-21T00:30:52;15.07;;;10.10;;
81056;SDS011;70563;50.084;14.468;2023-08-21T00:33:25;16.58;;;9.55;;
81056;SDS011;70563;50.084;14.468;2023-08-21T00:35:50;14.07;;;10.63;;
81056;SDS011;70563;50.084;14.468;2023-08-21T00:38:15;14.95;;;10.20;;
81056;SDS011;70563;50.084;14.468;2023-08-21T00:40:41;15.82;;;10.43;;
81056;SDS011;70563;50.084;14.468;2023-08-21T00:43:06;13.13;;;9.50;;
81056;SDS011;70563;50.084;14.468;2023-08-21T00:45:31;12.10;;;9.85;;
81056;SDS011;70563;50.084;14.468;2023-08-21T00:47:57;13.77;;;9.80;;
81056;SDS011;70563;50.084;14.468;2023-08-21T00:50:23;12.75;;;9.02;;
81056;SDS011;70563;50.084;14.468;2023-08-21T00:52:49;11.07;;;9.85;;
81056;SDS011;70563;50.084;14.468;2023-08-21T00:55:15;15.25;;;10.30;;
81056;SDS011;70563;50.084;14.468;2023-08-21T00:57:40;18.13;;;10.85;;
81056;SDS011;70563;50.084;14.468;2023-08-21T01:00:07;13.63;;;10.85;;
81056;SDS011;70563;50.084;14.468;2023-08-21T01:02:35;12.02;;;10.05;;
81056;SDS011;70563;50.084;14.468;2023-08-21T01:05:00;14.00;;;10.05;;
81056;SDS011;70563;50.084;14.468;2023-08-21T01:07:26;14.65;;;9.90;;
81056;SDS011;70563;50.084;14.468;2023-08-21T01:09:57;12.98;;;10.10;;
81056;SDS011;70563;50.084;14.468;2023-08-21T01:15:15;10.10;;;9.10;;
81056;SDS011;70563;50.084;14.468;2023-08-21T01:17:40;16.27;;;10.13;;
81056;SDS011;70563;50.084;14.468;2023-08-21T01:20:08;13.52;;;10.35;;
81056;SDS011;70563;50.084;14.468;2023-08-21T01:22:35;12.65;;;9.82;;
81056;SDS011;70563;50.084;14.468;2023-08-21T01:25:02;14.38;;;11.05;;
81056;SDS011;70563;50.084;14.468;2023-08-21T01:27:27;16.15;;;11.32;;
81056;SDS011;70563;50.084;14.468;2023-08-21T01:29:53;12.95;;;10.77;;
81056;SDS011;70563;50.084;14.468;2023-08-21T01:35:00;13.88;;;10.50;;
81056;SDS011;70563;50.084;14.468;2023-08-21T01:37:28;14.82;;;11.43;;
81056;SDS011;70563;50.084;14.468;2023-08-21T01:39:53;12.05;;;10.75;;
81056;SDS011;70563;50.084;14.468;2023-08-21T01:42:19;16.83;;;10.95;;
81056;SDS011;70563;50.084;14.468;2023-08-21T01:44:44;14.75;;;11.63;;
81056;SDS011;70563;50.084;14.468;2023-08-21T01:47:12;13.85;;;10.50;;
81056;SDS011;70563;50.084;14.468;2023-08-21T01:49:38;14.10;;;10.88;;
81056;SDS011;70563;50.084;14.468;2023-08-21T01:52:03;12.32;;;10.55;;
81056;SDS011;70563;50.084;14.468;2023-08-21T01:54:29;13.63;;;11.23;;
81056;SDS011;70563;50.084;14.468;2023-08-21T01:56:54;14.10;;;12.52;;
81056;SDS011;70563;50.084;14.468;2023-08-21T01:59:20;15.80;;;11.35;;
81056;SDS011;70563;50.084;14.468;2023-08-21T02:01:45;18.08;;;12.75;;
81056;SDS011;70563;50.084;14.468;2023-08-21T02:04:10;15.75;;;12.45;;
81056;SDS011;70563;50.084;14.468;2023-08-21T02:06:36;16.63;;;11.95;;
81056;SDS011;70563;50.084;14.468;2023-08-21T02:09:01;14.73;;;11.35;;
81056;SDS011;70563;50.084;14.468;2023-08-21T02:11:26;16.85;;;11.60;;
81056;SDS011;70563;50.084;14.468;2023-08-21T02:13:52;13.13;;;11.52;;
81056;SDS011;70563;50.084;14.468;2023-08-21T02:16:17;15.20;;;11.02;;
81056;SDS011;70563;50.084;14.468;2023-08-21T02:18:43;14.30;;;12.30;;
81056;SDS011;70563;50.084;14.468;2023-08-21T02:21:08;13.93;;;11.73;;
81056;SDS011;70563;50.084;14.468;2023-08-21T02:23:33;16.42;;;12.88;;
81056;SDS011;70563;50.084;14.468;2023-08-21T02:25:59;20.92;;;13.68;;
81056;SDS011;70563;50.084;14.468;2023-08-21T02:28:24;18.90;;;13.45;;
81056;SDS011;70563;50.084;14.468;2023-08-21T02:30:49;19.17;;;12.90;;
81056;SDS011;70563;50.084;14.468;2023-08-21T02:33:15;15.30;;;11.40;;
81056;SDS011;70563;50.084;14.468;2023-08-21T02:35:40;15.10;;;12.02;;
81056;SDS011;70563;50.084;14.468;2023-08-21T02:38:06;15.27;;;12.23;;
81056;SDS011;70563;50.084;14.468;2023-08-21T02:40:31;13.40;;;11.55;;
81056;SDS011;70563;50.084;14.468;2023-08-21T02:42:57;14.63;;;11.50;;
81056;SDS011;70563;50.084;14.468;2023-08-21T02:45:22;14.85;;;11.45;;
81056;SDS011;70563;50.084;14.468;2023-08-21T02:47:48;15.00;;;12.30;;
81056;SDS011;70563;50.084;14.468;2023-08-21T02:50:13;16.27;;;12.70;;
81056;SDS011;70563;50.084;14.468;2023-08-21T02:52:39;20.20;;;12.75;;
81056;SDS011;70563;50.084;14.468;2023-08-21T02:55:05;16.70;;;12.48;;
81056;SDS011;70563;50.084;14.468;2023-08-21T02:57:30;15.25;;;12.05;;
81056;SDS011;70563;50.084;14.468;2023-08-21T02:59:56;17.85;;;11.60;;
81056;SDS011;70563;50.084;14.468;2023-08-21T03:02:22;19.30;;;11.52;;
81056;SDS011;70563;50.084;14.468;2023-08-21T03:04:48;15.35;;;12.15;;
81056;SDS011;70563;50.084;14.468;2023-08-21T03:07:13;15.25;;;10.70;;
81056;SDS011;70563;50.084;14.468;2023-08-21T03:09:39;15.27;;;11.93;;
81056;SDS011;70563;50.084;14.468;2023-08-21T03:12:05;15.50;;;11.50;;
81056;SDS011;70563;50.084;14.468;2023-08-21T03:14:32;17.92;;;12.88;;
81056;SDS011;70563;50.084;14.468;2023-08-21T03:16:57;17.30;;;12.35;;
81056;SDS011;70563;50.084;14.468;2023-08-21T03:19:23;15.82;;;12.25;;
81056;SDS011;70563;50.084;14.468;2023-08-21T03:21:48;14.82;;;11.93;;
81056;SDS011;70563;50.084;14.468;2023-08-21T03:24:13;15.48;;;11.95;;
81056;SDS011;70563;50.084;14.468;2023-08-21T03:26:39;14.52;;;12.18;;
81056;SDS011;70563;50.084;14.468;2023-08-21T03:29:04;13.95;;;12.05;;
81056;SDS011;70563;50.084;14.468;2023-08-21T03:31:30;14.27;;;11.65;;
81056;SDS011;70563;50.084;14.468;2023-08-21T03:33:55;13.93;;;11.50;;
81056;SDS011;70563;50.084;14.468;2023-08-21T03:36:21;15.45;;;11.60;;
81056;SDS011;70563;50.084;14.468;2023-08-21T03:38:55;14.20;;;11.27;;
81056;SDS011;70563;50.084;14.468;2023-08-21T03:41:24;18.73;;;12.35;;
81056;SDS011;70563;50.084;14.468;2023-08-21T03:43:49;16.40;;;13.80;;
81056;SDS011;70563;50.084;14.468;2023-08-21T03:46:15;14.20;;;12.23;;
81056;SDS011;70563;50.084;14.468;2023-08-21T03:48:40;16.83;;;12.32;;
81056;SDS011;70563;50.084;14.468;2023-08-21T03:51:06;16.20;;;11.15;;
81056;SDS011;70563;50.084;14.468;2023-08-21T03:53:31;16.65;;;12.30;;
81056;SDS011;70563;50.084;14.468;2023-08-21T03:55:57;15.05;;;11.25;;
81056;SDS011;70563;50.084;14.468;2023-08-21T03:58:22;15.43;;;11.50;;
81056;SDS011;70563;50.084;14.468;2023-08-21T04:00:47;15.93;;;10.73;;
81056;SDS011;70563;50.084;14.468;2023-08-21T04:03:13;15.73;;;10.40;;
81056;SDS011;70563;50.084;14.468;2023-08-21T04:05:38;16.55;;;12.52;;
81056;SDS011;70563;50.084;14.468;2023-08-21T04:08:04;15.77;;;11.85;;
81056;SDS011;70563;50.084;14.468;2023-08-21T04:10:29;16.85;;;12.50;;
81056;SDS011;70563;50.084;14.468;2023-08-21T04:12:54;15.35;;;11.77;;
81056;SDS011;70563;50.084;14.468;2023-08-21T04:15:20;14.73;;;12.13;;
81056;SDS011;70563;50.084;14.468;2023-08-21T04:17:45;16.30;;;11.73;;
81056;SDS011;70563;50.084;14.468;2023-08-21T04:20:10;15.02;;;11.57;;
81056;SDS011;70563;50.084;14.468;2023-08-21T04:22:36;16.70;;;11.55;;
81056;SDS011;70563;50.084;14.468;2023-08-21T04:25:01;13.88;;;11.73;;
81056;SDS011;70563;50.084;14.468;2023-08-21T04:27:27;17.08;;;12.65;;
81056;SDS011;70563;50.084;14.468;2023-08-21T04:29:53;20.25;;;12.35;;
81056;SDS011;70563;50.084;14.468;2023-08-21T04:32:18;15.23;;;11.65;;
81056;SDS011;70563;50.084;14.468;2023-08-21T04:34:43;16.73;;;11.55;;
81056;SDS011;70563;50.084;14.468;2023-08-21T04:37:09;13.23;;;11.57;;
81056;SDS011;70563;50.084;14.468;2023-08-21T04:39:34;17.63;;;11.85;;
81056;SDS011;70563;50.084;14.468;2023-08-21T04:42:02;16.17;;;11.38;;
81056;SDS011;70563;50.084;14.468;2023-08-21T04:44:28;16.85;;;11.68;;
81056;SDS011;70563;50.084;14.468;2023-08-21T04:46:55;18.55;;;12.27;;
81056;SDS011;70563;50.084;14.468;2023-08-21T04:49:20;14.80;;;11.40;;
81056;SDS011;70563;50.084;14.468;2023-08-21T04:51:46;12.90;;;10.55;;
81056;SDS011;70563;50.084;14.468;2023-08-21T04:54:11;14.40;;;12.35;;
81056;SDS011;70563;50.084;14.468;2023-08-21T04:56:36;16.42;;;11.45;;
81056;SDS011;70563;50.084;14.468;2023-08-21T04:59:02;16.02;;;12.07;;
81056;SDS011;70563;50.084;14.468;2023-08-21T05:01:27;14.35;;;12.25;;
81056;SDS011;70563;50.084;14.468;2023-08-21T05:03:53;14.63;;;11.13;;
81056;SDS011;70563;50.084;14.468;2023-08-21T05:06:19;13.77;;;10.85;;
81056;SDS011;70563;50.084;14.468;2023-08-21T05:08:45;16.23;;;11.73;;
81056;SDS011;70563;50.084;14.468;2023-08-21T05:11:10;13.98;;;11.57;;
81056;SDS011;70563;50.084;14.468;2023-08-21T05:13:35;15.73;;;12.18;;
81056;SDS011;70563;50.084;14.468;2023-08-21T05:16:01;15.20;;;11.23;;
81056;SDS011;70563;50.084;14.468;2023-08-21T05:18:26;14.77;;;11.48;;
81056;SDS011;70563;50.084;14.468;2023-08-21T05:20:54;14.82;;;11.77;;
81056;SDS011;70563;50.084;14.468;2023-08-21T05:23:20;16.33;;;11.93;;
81056;SDS011;70563;50.084;14.468;2023-08-21T05:25:46;13.27;;;10.85;;
81056;SDS011;70563;50.084;14.468;2023-08-21T05:28:13;16.45;;;11.07;;
81056;SDS011;70563;50.084;14.468;2023-08-21T05:30:38;13.32;;;11.13;;
81056;SDS011;70563;50.084;14.468;2023-08-21T05:33:04;16.25;;;11.38;;
81056;SDS011;70563;50.084;14.468;2023-08-21T05:35:35;14.38;;;11.00;;
81056;SDS011;70563;50.084;14.468;2023-08-21T05:38:02;15.73;;;10.77;;
81056;SDS011;70563;50.084;14.468;2023-08-21T05:40:28;12.75;;;10.32;;
81056;SDS011;70563;50.084;14.468;2023-08-21T05:42:53;11.57;;;9.80;;
81056;SDS011;70563;50.084;14.468;2023-08-21T05:45:19;12.15;;;9.98;;
81056;SDS011;70563;50.084;14.468;2023-08-21T05:47:44;12.02;;;9.73;;
81056;SDS011;70563;50.084;14.468;2023-08-21T05:50:09;12.75;;;10.02;;
81056;SDS011;70563;50.084;14.468;2023-08-21T05:52:35;13.38;;;9.45;;
81056;SDS011;70563;50.084;14.468;2023-08-21T05:55:00;13.48;;;9.73;;
81056;SDS011;70563;50.084;14.468;2023-08-21T05:57:26;13.95;;;10.02;;
81056;SDS011;70563;50.084;14.468;2023-08-21T05:59:51;12.48;;;9.52;;
81056;SDS011;70563;50.084;14.468;2023-08-21T06:02:17;11.27;;;9.50;;
81056;SDS011;70563;50.084;14.468;2023-08-21T06:04:42;13.73;;;10.20;;
81056;SDS011;70563;50.084;14.468;2023-08-21T06:07:08;12.23;;;10.00;;
81056;SDS011;70563;50.084;14.468;2023-08-21T06:09:34;11.50;;;10.35;;
81056;SDS011;70563;50.084;14.468;2023-08-21T06:12:01;13.90;;;10.45;;
81056;SDS011;70563;50.084;14.468;2023-08-21T06:14:27;10.77;;;9.07;;
81056;SDS011;70563;50.084;14.468;2023-08-21T06:16:56;9.35;;;8.40;;
81056;SDS011;70563;50.084;14.468;2023-08-21T06:19:22;12.65;;;10.52;;
81056;SDS011;70563;50.084;14.468;2023-08-21T06:21:47;10.82;;;9.02;;
81056;SDS011;70563;50.084;14.468;2023-08-21T06:24:13;12.30;;;9.30;;
81056;SDS011;70563;50.084;14.468;2023-08-21T06:26:39;12.73;;;9.40;;
81056;SDS011;70563;50.084;14.468;2023-08-21T06:29:05;13.85;;;9.88;;
81056;SDS011;70563;50.084;14.468;2023-08-21T06:31:30;12.98;;;9.05;;
81056;SDS011;70563;50.084;14.468;2023-08-21T06:33:55;13.35;;;10.45;;
81056;SDS011;70563;50.084;14.468;2023-08-21T06:36:21;17.50;;;10.65;;
81056;SDS011;70563;50.084;14.468;2023-08-21T06:38:46;14.95;;;10.27;;
81056;SDS011;70563;50.084;14.468;2023-08-21T06:41:12;13.65;;;9.65;;
81056;SDS011;70563;50.084;14.468;2023-08-21T06:43:37;11.32;;;9.82;;
81056;SDS011;70563;50.084;14.468;2023-08-21T06:46:02;13.07;;;9.77;;
81056;SDS011;70563;50.084;14.468;2023-08-21T06:48:28;16.15;;;11.13;;
81056;SDS011;70563;50.084;14.468;2023-08-21T06:50:53;14.90;;;9.48;;
81056;SDS011;70563;50.084;14.468;2023-08-21T06:53:18;11.30;;;8.70;;
81056;SDS011;70563;50.084;14.468;2023-08-21T06:55:47;14.32;;;9.30;;
81056;SDS011;70563;50.084;14.468;2023-08-21T06:58:12;10.52;;;9.10;;
81056;SDS011;70563;50.084;14.468;2023-08-21T07:00:38;14.13;;;9.55;;
81056;SDS011;70563;50.084;14.468;2023-08-21T07:03:03;11.73;;;9.73;;
81056;SDS011;70563;50.084;14.468;2023-08-21T07:05:32;14.27;;;9.52;;
81056;SDS011;70563;50.084;14.468;2023-08-21T07:07:58;11.65;;;8.95;;
81056;SDS011;70563;50.084;14.468;2023-08-21T07:10:23;10.27;;;8.93;;
81056;SDS011;70563;50.084;14.468;2023-08-21T07:12:49;14.05;;;9.00;;
81056;SDS011;70563;50.084;14.468;2023-08-21T07:15:14;9.23;;;8.18;;
81056;SDS011;70563;50.084;14.468;2023-08-21T07:17:40;9.13;;;8.07;;
81056;SDS011;70563;50.084;14.468;2023-08-21T07:20:06;12.05;;;9.05;;
81056;SDS011;70563;50.084;14.468;2023-08-21T07:22:32;10.35;;;8.80;;
81056;SDS011;70563;50.084;14.468;2023-08-21T07:24:58;12.77;;;7.82;;
81056;SDS011;70563;50.084;14.468;2023-08-21T07:27:25;11.60;;;8.95;;
81056;SDS011;70563;50.084;14.468;2023-08-21T07:29:50;12.98;;;9.27;;
81056;SDS011;70563;50.084;14.468;2023-08-21T07:32:16;13.52;;;10.48;;
81056;SDS011;70563;50.084;14.468;2023-08-21T07:34:41;16.48;;;11.52;;
81056;SDS011;70563;50.084;14.468;2023-08-21T07:37:07;14.18;;;11.60;;
81056;SDS011;70563;50.084;14.468;2023-08-21T07:39:34;10.23;;;8.73;;
81056;SDS011;70563;50.084;14.468;2023-08-21T07:41:59;11.00;;;9.02;;
81056;SDS011;70563;50.084;14.468;2023-08-21T07:44:25;12.40;;;9.90;;
81056;SDS011;70563;50.084;14.468;2023-08-21T07:46:51;12.32;;;9.20;;
81056;SDS011;70563;50.084;14.468;2023-08-21T07:49:16;13.52;;;10.43;;
81056;SDS011;70563;50.084;14.468;2023-08-21T07:51:42;13.07;;;9.65;;
81056;SDS011;70563;50.084;14.468;2023-08-21T07:54:07;12.43;;;10.32;;
81056;SDS011;70563;50.084;14.468;2023-08-21T07:56:32;18.38;;;13.23;;
81056;SDS011;70563;50.084;14.468;2023-08-21T07:59:00;18.13;;;10.35;;
81056;SDS011;70563;50.084;14.468;2023-08-21T08:01:26;11.82;;;9.18;;
81056;SDS011;70563;50.084;14.468;2023-08-21T08:03:52;20.48;;;10.57;;
81056;SDS011;70563;50.084;14.468;2023-08-21T08:06:17;11.45;;;9.18;;
81056;SDS011;70563;50.084;14.468;2023-08-21T08:08:43;10.95;;;8.73;;
81056;SDS011;70563;50.084;14.468;2023-08-21T08:11:09;14.43;;;8.48;;
81056;SDS011;70563;50.084;14.468;2023-08-21T08:13:34;11.98;;;8.80;;
81056;SDS011;70563;50.084;14.468;2023-08-21T08:15:59;12.70;;;9.35;;
81056;SDS011;70563;50.084;14.468;2023-08-21T08:18:25;9.10;;;8.13;;
81056;SDS011;70563;50.084;14.468;2023-08-21T08:20:51;11.38;;;8.52;;
81056;SDS011;70563;50.084;14.468;2023-08-21T08:23:17;9.93;;;8.38;;
81056;SDS011;70563;50.084;14.468;2023-08-21T08:25:44;21.55;;;18.60;;
81056;SDS011;70563;50.084;14.468;2023-08-21T08:28:09;12.82;;;9.38;;
81056;SDS011;70563;50.084;14.468;2023-08-21T08:30:34;11.73;;;8.57;;
81056;SDS011;70563;50.084;14.468;2023-08-21T08:33:00;10.63;;;8.07;;
81056;SDS011;70563;50.084;14.468;2023-08-21T08:35:25;11.32;;;8.70;;
81056;SDS011;70563;50.084;14.468;2023-08-21T08:37:50;15.00;;;12.90;;
81056;SDS011;70563;50.084;14.468;2023-08-21T08:40:16;10.68;;;8.55;;
81056;SDS011;70563;50.084;14.468;2023-08-21T08:42:41;10.40;;;8.80;;
81056;SDS011;70563;50.084;14.468;2023-08-21T08:45:07;9.80;;;8.10;;
81056;SDS011;70563;50.084;14.468;2023-08-21T08:47:33;11.43;;;9.00;;
81056;SDS011;70563;50.084;14.468;2023-08-21T08:50:03;13.63;;;9.10;;
81056;SDS011;70563;50.084;14.468;2023-08-21T08:52:31;13.00;;;9.20;;
81056;SDS011;70563;50.084;14.468;2023-08-21T08:55:00;10.73;;;8.73;;
81056;SDS011;70563;50.084;14.468;2023-08-21T08:57:25;11.63;;;8.73;;
81056;SDS011;70563;50.084;14.468;2023-08-21T08:59:50;10.52;;;8.65;;
81056;SDS011;70563;50.084;14.468;2023-08-21T09:02:16;9.68;;;8.70;;
81056;SDS011;70563;50.084;14.468;2023-08-21T09:04:41;11.65;;;8.32;;
81056;SDS011;70563;50.084;14.468;2023-08-21T09:07:07;10.23;;;9.07;;
81056;SDS011;70563;50.084;14.468;2023-08-21T09:09:39;11.07;;;9.32;;
81056;SDS011;70563;50.084;14.468;2023-08-21T09:14:41;15.45;;;10.55;;
81056;SDS011;70563;50.084;14.468;2023-08-21T09:17:07;9.95;;;8.35;;
81056;SDS011;70563;50.084;14.468;2023-08-21T09:19:33;8.93;;;8.10;;
81056;SDS011;70563;50.084;14.468;2023-08-21T09:22:07;9.95;;;8.80;;
81056;SDS011;70563;50.084;14.468;2023-08-21T09:24:38;15.90;;;10.15;;
81056;SDS011;70563;50.084;14.468;2023-08-21T09:27:04;10.60;;;8.95;;
81056;SDS011;70563;50.084;14.468;2023-08-21T09:29:38;11.93;;;9.77;;
81056;SDS011;70563;50.084;14.468;2023-08-21T09:32:05;12.10;;;8.40;;
81056;SDS011;70563;50.084;14.468;2023-08-21T09:34:34;11.35;;;9.43;;
81056;SDS011;70563;50.084;14.468;2023-08-21T09:37:04;9.32;;;8.43;;
81056;SDS011;70563;50.084;14.468;2023-08-21T09:39:32;11.32;;;8.90;;
81056;SDS011;70563;50.084;14.468;2023-08-21T09:42:04;11.00;;;9.65;;
81056;SDS011;70563;50.084;14.468;2023-08-21T09:44:39;11.85;;;9.30;;
81056;SDS011;70563;50.084;14.468;2023-08-21T09:47:11;10.38;;;8.60;;
81056;SDS011;70563;50.084;14.468;2023-08-21T09:49:37;11.55;;;9.27;;
81056;SDS011;70563;50.084;14.468;2023-08-21T09:52:06;10.23;;;8.25;;
81056;SDS011;70563;50.084;14.468;2023-08-21T09:54:35;12.63;;;9.10;;
81056;SDS011;70563;50.084;14.468;2023-08-21T09:57:01;11.90;;;9.02;;
81056;SDS011;70563;50.084;14.468;2023-08-21T09:59:27;12.07;;;10.82;;
81056;SDS011;70563;50.084;14.468;2023-08-21T10:01:54;10.00;;;8.95;;
81056;SDS011;70563;50.084;14.468;2023-08-21T10:04:22;10.25;;;8.25;;
81056;SDS011;70563;50.084;14.468;2023-08-21T10:06:48;10.50;;;9.40;;
81056;SDS011;70563;50.084;14.468;2023-08-21T10:09:16;9.45;;;8.35;;
81056;SDS011;70563;50.084;14.468;2023-08-21T10:11:42;11.48;;;8.80;;
81056;SDS011;70563;50.084;14.468;2023-08-21T10:14:09;9.85;;;8.73;;
81056;SDS011;70563;50.084;14.468;2023-08-21T10:16:35;9.38;;;8.20;;
81056;SDS011;70563;50.084;14.468;2023-08-21T10:19:04;9.75;;;7.88;;
81056;SDS011;70563;50.084;14.468;2023-08-21T10:21:34;10.57;;;8.98;;
81056;SDS011;70563;50.084;14.468;2023-08-21T10:24:01;8.85;;;7.85;;
81056;SDS011;70563;50.084;14.468;2023-08-21T10:26:27;11.68;;;7.47;;
81056;SDS011;70563;50.084;14.468;2023-08-21T10:28:53;9.45;;;7.50;;
81056;SDS011;70563;50.084;14.468;2023-08-21T10:31:31;8.43;;;7.45;;
81056;SDS011;70563;50.084;14.468;2023-08-21T10:33:57;9.65;;;8.48;;
81056;SDS011;70563;50.084;14.468;2023-08-21T10:36:39;8.30;;;7.45;;
81056;SDS011;70563;50.084;14.468;2023-08-21T10:39:25;10.23;;;9.20;;
81056;SDS011;70563;50.084;14.468;2023-08-21T10:41:55;8.02;;;7.15;;
81056;SDS011;70563;50.084;14.468;2023-08-21T10:49:40;10.27;;;7.65;;
81056;SDS011;70563;50.084;14.468;2023-08-21T10:52:08;8.38;;;7.38;;
81056;SDS011;70563;50.084;14.468;2023-08-21T10:54:47;8.40;;;7.70;;
81056;SDS011;70563;50.084;14.468;2023-08-21T10:57:13;10.60;;;7.93;;
81056;SDS011;70563;50.084;14.468;2023-08-21T10:59:48;9.98;;;7.55;;
81056;SDS011;70563;50.084;14.468;2023-08-21T11:02:24;9.18;;;8.32;;
81056;SDS011;70563;50.084;14.468;2023-08-21T11:04:51;7.88;;;7.18;;
81056;SDS011;70563;50.084;14.468;2023-08-21T11:07:17;8.63;;;7.53;;
81056;SDS011;70563;50.084;14.468;2023-08-21T11:09:43;7.88;;;7.15;;
81056;SDS011;70563;50.084;14.468;2023-08-21T11:12:09;8.45;;;7.65;;
81056;SDS011;70563;50.084;14.468;2023-08-21T11:14:37;8.77;;;7.68;;
81056;SDS011;70563;50.084;14.468;2023-08-21T11:17:03;9.88;;;7.97;;
81056;SDS011;70563;50.084;14.468;2023-08-21T11:19:32;10.35;;;8.35;;
81056;SDS011;70563;50.084;14.468;2023-08-21T11:22:02;9.55;;;8.48;;
81056;SDS011;70563;50.084;14.468;2023-08-21T11:24:40;10.65;;;8.50;;
81056;SDS011;70563;50.084;14.468;2023-08-21T11:27:14;10.27;;;8.30;;
81056;SDS011;70563;50.084;14.468;2023-08-21T11:29:42;9.70;;;8.52;;
81056;SDS011;70563;50.084;14.468;2023-08-21T11:32:13;9.68;;;8.10;;
81056;SDS011;70563;50.084;14.468;2023-08-21T11:35:02;11.15;;;7.80;;
81056;SDS011;70563;50.084;14.468;2023-08-21T11:37:28;9.18;;;8.25;;
81056;SDS011;70563;50.084;14.468;2023-08-21T11:39:54;11.05;;;8.48;;
81056;SDS011;70563;50.084;14.468;2023-08-21T11:42:22;10.50;;;8.10;;
81056;SDS011;70563;50.084;14.468;2023-08-21T11:44:54;8.98;;;8.13;;
81056;SDS011;70563;50.084;14.468;2023-08-21T11:47:22;9.88;;;8.40;;
81056;SDS011;70563;50.084;14.468;2023-08-21T11:49:48;8.95;;;8.02;;
81056;SDS011;70563;50.084;14.468;2023-08-21T11:52:21;10.05;;;7.90;;
81056;SDS011;70563;50.084;14.468;2023-08-21T11:54:49;9.25;;;8.35;;
81056;SDS011;70563;50.084;14.468;2023-08-21T11:57:16;8.98;;;7.30;;
81056;SDS011;70563;50.084;14.468;2023-08-21T11:59:42;9.57;;;6.85;;
81056;SDS011;70563;50.084;14.468;2023-08-21T12:02:14;9.10;;;6.30;;
81056;SDS011;70563;50.084;14.468;2023-08-21T12:04:42;6.82;;;5.90;;
81056;SDS011;70563;50.084;14.468;2023-08-21T12:07:08;6.18;;;5.32;;
81056;SDS011;70563;50.084;14.468;2023-08-21T12:09:33;7.15;;;6.40;;
81056;SDS011;70563;50.084;14.468;2023-08-21T12:11:59;6.43;;;5.80;;
81056;SDS011;70563;50.084;14.468;2023-08-21T12:14:24;5.93;;;5.28;;
81056;SDS011;70563;50.084;14.468;2023-08-21T12:16:50;5.75;;;5.15;;
81056;SDS011;70563;50.084;14.468;2023-08-21T12:19:15;6.97;;;6.00;;
81056;SDS011;70563;50.084;14.468;2023-08-21T12:21:41;5.90;;;5.07;;
81056;SDS011;70563;50.084;14.468;2023-08-21T12:24:06;5.63;;;4.93;;
81056;SDS011;70563;50.084;14.468;2023-08-21T12:26:35;8.30;;;6.13;;
81056;SDS011;70563;50.084;14.468;2023-08-21T12:29:00;6.30;;;5.55;;
81056;SDS011;70563;50.084;14.468;2023-08-21T12:31:27;7.53;;;5.63;;
81056;SDS011;70563;50.084;14.468;2023-08-21T12:33:53;15.07;;;6.45;;
81056;SDS011;70563;50.084;14.468;2023-08-21T12:36:18;6.97;;;5.72;;
81056;SDS011;70563;50.084;14.468;2023-08-21T12:38:44;7.72;;;5.35;;
81056;SDS011;70563;50.084;14.468;2023-08-21T12:41:09;6.80;;;6.18;;
81056;SDS011;70563;50.084;14.468;2023-08-21T12:43:35;7.20;;;5.88;;
81056;SDS011;70563;50.084;14.468;2023-08-21T12:46:00;5.93;;;5.32;;
81056;SDS011;70563;50.084;14.468;2023-08-21T12:48:26;6.40;;;5.78;;
81056;SDS011;70563;50.084;14.468;2023-08-21T12:50:51;9.93;;;6.80;;
81056;SDS011;70563;50.084;14.468;2023-08-21T12:53:16;9.80;;;6.75;;
81056;SDS011;70563;50.084;14.468;2023-08-21T12:55:42;15.52;;;6.82;;
81056;SDS011;70563;50.084;14.468;2023-08-21T12:58:07;8.82;;;6.38;;
81056;SDS011;70563;50.084;14.468;2023-08-21T13:00:33;8.65;;;6.90;;
81056;SDS011;70563;50.084;14.468;2023-08-21T13:02:58;7.57;;;6.78;;
81056;SDS011;70563;50.084;14.468;2023-08-21T13:05:24;8.00;;;6.72;;
81056;SDS011;70563;50.084;14.468;2023-08-21T13:07:49;9.82;;;6.60;;
81056;SDS011;70563;50.084;14.468;2023-08-21T13:10:15;11.32;;;6.55;;
81056;SDS011;70563;50.084;14.468;2023-08-21T13:12:40;7.32;;;5.93;;
81056;SDS011;70563;50.084;14.468;2023-08-21T13:15:05;8.93;;;6.90;;
81056;SDS011;70563;50.084;14.468;2023-08-21T13:17:33;8.85;;;7.20;;
81056;SDS011;70563;50.084;14.468;2023-08-21T13:19:58;9.90;;;6.60;;
81056;SDS011;70563;50.084;14.468;2023-08-21T13:22:24;8.95;;;7.63;;
81056;SDS011;70563;50.084;14.468;2023-08-21T13:24:49;12.25;;;8.40;;
81056;SDS011;70563;50.084;14.468;2023-08-21T13:27:15;11.40;;;7.35;;
81056;SDS011;70563;50.084;14.468;2023-08-21T13:29:41;11.68;;;7.10;;
81056;SDS011;70563;50.084;14.468;2023-08-21T13:32:06;7.50;;;6.90;;
81056;SDS011;70563;50.084;14.468;2023-08-21T13:34:31;10.23;;;7.82;;
81056;SDS011;70563;50.084;14.468;2023-08-21T13:36:57;9.07;;;6.78;;
81056;SDS011;70563;50.084;14.468;2023-08-21T13:39:22;8.93;;;6.80;;
81056;SDS011;70563;50.084;14.468;2023-08-21T13:41:48;8.38;;;6.60;;
81056;SDS011;70563;50.084;14.468;2023-08-21T13:44:15;10.00;;;6.63;;
81056;SDS011;70563;50.084;14.468;2023-08-21T13:46:40;8.02;;;6.05;;
81056;SDS011;70563;50.084;14.468;2023-08-21T13:49:06;8.88;;;6.25;;
81056;SDS011;70563;50.084;14.468;2023-08-21T13:51:31;6.93;;;6.10;;
81056;SDS011;70563;50.084;14.468;2023-08-21T13:53:57;7.40;;;6.60;;
81056;SDS011;70563;50.084;14.468;2023-08-21T13:56:22;9.55;;;6.20;;
81056;SDS011;70563;50.084;14.468;2023-08-21T13:58:47;6.60;;;5.82;;
81056;SDS011;70563;50.084;14.468;2023-08-21T14:01:13;7.30;;;6.40;;
81056;SDS011;70563;50.084;14.468;2023-08-21T14:03:38;6.32;;;5.72;;
81056;SDS011;70563;50.084;14.468;2023-08-21T14:06:04;8.80;;;6.57;;
81056;SDS011;70563;50.084;14.468;2023-08-21T14:08:29;6.38;;;5.50;;
81056;SDS011;70563;50.084;14.468;2023-08-21T14:10:54;10.05;;;6.25;;
81056;SDS011;70563;50.084;14.468;2023-08-21T14:13:20;7.63;;;6.07;;
81056;SDS011;70563;50.084;14.468;2023-08-21T14:15:45;9.38;;;6.53;;
81056;SDS011;70563;50.084;14.468;2023-08-21T14:18:11;9.13;;;6.53;;
81056;SDS011;70563;50.084;14.468;2023-08-21T14:20:36;7.95;;;6.05;;
81056;SDS011;70563;50.084;14.468;2023-08-21T14:23:02;8.18;;;6.45;;
81056;SDS011;70563;50.084;14.468;2023-08-21T14:25:27;8.32;;;6.38;;
81056;SDS011;70563;50.084;14.468;2023-08-21T14:27:53;7.13;;;5.95;;